Time;durP1;ratioP1;P1;durP2;ratioP2;P2;SDS_P1;SDS_P2;PMS_P1;PMS_P2;Temp;Humidity;BMP_temperature;BMP_pressure;BME280_temperature;BME280_humidity;BME280_pressure;Samples;Min_cycle;Max_cycle;Signal;HPM_P1;HPM_P2
2023/07/04 08:57:16;;;;;;;11.65;2.88;;;;;;;17.38;60.81;101069.59;5089851;27;20365;-71
2023/07/04 08:59:44;;;;;;;10.70;2.90;;;;;;;17.41;57.72;101064.44;5090174;28;20055;-70
2023/07/04 09:02:39;;;;;;;10.18;3.10;;;;;;;17.47;58.43;101071.59;5090645;28;20024;-70
2023/07/04 09:05:16;;;;;;;11.00;3.20;;;;;;;17.63;59.11;101079.88;5110038;28;20386;-67
2023/07/04 09:07:59;;;;;;;14.25;3.53;;;;;;;17.73;59.16;101082.66;5110333;28;20451;-69
2023/07/04 09:10:41;;;;;;;11.93;3.25;;;;;;;17.76;57.49;101087.59;5109670;28;20020;-71
2023/07/04 09:13:13;;;;;;;8.18;2.75;;;;;;;17.81;56.15;101081.31;5087334;28;20035;-71
2023/07/04 09:15:46;;;;;;;12.65;3.15;;;;;;;17.85;56.57;101091.44;5089785;28;20024;-69
2023/07/04 09:18:27;;;;;;;12.02;3.30;;;;;;;17.87;56.83;101094.75;5089549;28;20139;-72
2023/07/04 09:21:06;;;;;;;8.90;3.10;;;;;;;17.84;57.92;101091.72;5091256;28;20477;-69
2023/07/04 09:23:31;;;;;;;13.55;3.28;;;;;;;17.88;57.67;101101.88;5089840;28;20020;-69
2023/07/04 09:25:58;;;;;;;8.60;2.92;;;;;;;17.89;59.59;101095.34;5089202;28;20020;-72
2023/07/04 09:28:24;;;;;;;10.88;3.25;;;;;;;18.05;58.02;101100.88;5089721;28;20035;-69
2023/07/04 09:30:53;;;;;;;8.77;2.80;;;;;;;18.12;55.74;101101.44;5078140;28;20477;-69
2023/07/04 09:33:21;;;;;;;9.57;3.30;;;;;;;18.11;57.95;101096.22;5084892;28;20032;-70
2023/07/04 09:35:47;;;;;;;9.68;3.13;;;;;;;18.08;58.39;101108.53;5089401;28;20351;-72
2023/07/04 09:38:12;;;;;;;8.85;3.38;;;;;;;18.12;55.50;101114.31;5089455;28;20052;-71
2023/07/04 09:40:50;;;;;;;10.13;3.47;;;;;;;18.07;55.57;101115.09;5076823;28;20491;-71
2023/07/04 09:43:25;;;;;;;11.35;3.50;;;;;;;18.17;59.65;101112.41;5053454;28;20025;-71
2023/07/04 09:45:50;;;;;;;10.35;3.45;;;;;;;18.29;56.37;101108.59;5031184;28;20025;-69
2023/07/04 09:48:24;;;;;;;8.90;3.10;;;;;;;18.21;57.25;101112.69;5066026;28;20116;-69
2023/07/04 09:50:49;;;;;;;10.68;3.58;;;;;;;18.19;56.22;101110.22;5068925;28;20033;-68
2023/07/04 09:53:18;;;;;;;12.63;3.88;;;;;;;18.13;57.18;101114.06;5067708;28;20655;-69
2023/07/04 09:55:57;;;;;;;9.73;3.40;;;;;;;18.17;58.42;101103.38;5070928;28;20047;-70
2023/07/04 09:58:25;;;;;;;9.80;2.90;;;;;;;18.24;53.91;101112.97;5089097;28;20028;-71
2023/07/04 10:01:13;;;;;;;9.50;2.78;;;;;;;18.38;52.07;101112.44;5079644;28;20683;-71
2023/07/04 10:03:40;;;;;;;9.43;2.63;;;;;;;18.47;51.86;101113.56;5089201;28;20056;-70
2023/07/04 10:06:06;;;;;;;7.65;2.40;;;;;;;18.47;50.28;101107.28;5088724;28;20024;-70
2023/07/04 10:08:49;;;;;;;10.27;2.80;;;;;;;18.50;52.63;101110.28;5075288;28;20024;-69
2023/07/04 10:11:23;;;;;;;8.45;2.60;;;;;;;18.70;52.11;101111.41;5055555;28;20111;-70
2023/07/04 10:14:03;;;;;;;8.05;2.85;;;;;;;18.59;53.28;101108.63;5055583;28;20507;-71
2023/07/04 10:16:28;;;;;;;10.38;3.00;;;;;;;18.56;52.85;101103.69;5053233;28;20029;-72
2023/07/04 10:19:12;;;;;;;10.60;2.70;;;;;;;18.69;54.67;101101.50;5073043;28;20085;-71
2023/07/04 10:21:43;;;;;;;15.68;3.58;;;;;;;18.70;54.72;101105.91;5057075;28;20033;-71
2023/07/04 10:24:15;;;;;;;9.73;3.00;;;;;;;18.69;56.08;101112.47;5074850;28;20029;-72
2023/07/04 10:26:41;;;;;;;10.95;3.05;;;;;;;18.77;55.65;101103.72;5046518;28;20514;-71
2023/07/04 10:29:08;;;;;;;10.77;3.30;;;;;;;18.89;56.33;101095.25;5036812;28;20021;-71
2023/07/04 10:31:35;;;;;;;11.20;2.60;;;;;;;19.01;56.13;101094.94;5036861;28;20035;-71
2023/07/04 10:34:08;;;;;;;14.05;3.00;;;;;;;19.06;53.69;101103.19;5036809;28;20020;-71
2023/07/04 10:36:45;;;;;;;8.50;2.95;;;;;;;19.11;52.16;101104.03;5039480;28;20023;-71
2023/07/04 10:39:18;;;;;;;7.13;2.60;;;;;;;19.09;50.53;101113.63;5056322;28;20058;-71
2023/07/04 10:42:14;;;;;;;8.40;2.67;;;;;;;19.19;50.97;101108.13;5056193;28;20023;-72
2023/07/04 10:44:54;;;;;;;9.35;3.00;;;;;;;19.18;52.71;101108.41;5034904;28;20475;-71
2023/07/04 10:47:30;;;;;;;9.88;2.90;;;;;;;19.32;51.65;101112.19;5041109;28;20037;-71
2023/07/04 10:50:02;;;;;;;7.32;2.25;;;;;;;19.39;50.73;101111.94;5036188;28;20117;-71
2023/07/04 10:52:33;;;;;;;8.85;2.80;;;;;;;19.44;51.73;101101.72;5054221;28;20135;-71
2023/07/04 10:55:00;;;;;;;7.50;2.53;;;;;;;19.48;50.43;101113.00;5036284;28;20028;-70
2023/07/04 10:57:31;;;;;;;10.70;3.05;;;;;;;19.64;52.84;101106.34;5057139;28;20082;-72
2023/07/04 11:00:04;;;;;;;15.95;2.63;;;;;;;19.73;53.03;101108.50;5054173;28;20024;-71
2023/07/04 11:02:54;;;;;;;12.07;2.80;;;;;;;19.58;50.74;101104.75;5030858;28;20045;-70
2023/07/04 11:05:31;;;;;;;5.97;2.30;;;;;;;19.51;51.98;101106.94;5052878;28;20033;-70
2023/07/04 11:07:57;;;;;;;12.55;3.42;;;;;;;19.42;51.45;101105.88;5053712;28;20025;-69
2023/07/04 11:10:24;;;;;;;7.70;2.70;;;;;;;19.39;50.82;101111.94;5053436;28;20031;-70
2023/07/04 11:12:53;;;;;;;8.85;2.50;;;;;;;19.40;50.95;101108.06;5052096;28;20107;-71
2023/07/04 11:15:38;;;;;;;10.40;2.88;;;;;;;19.53;50.89;101110.22;5053432;28;20103;-70
2023/07/04 11:18:05;;;;;;;7.70;2.60;;;;;;;19.42;50.32;101120.41;5053012;28;20029;-71
2023/07/04 11:20:38;;;;;;;7.65;2.28;;;;;;;19.43;49.91;101115.72;5034050;28;20051;-71
2023/07/04 11:23:13;;;;;;;10.27;2.80;;;;;;;19.42;50.10;101111.38;5069173;28;20031;-70
2023/07/04 11:25:42;;;;;;;7.13;2.67;;;;;;;19.52;49.68;101119.59;5066380;28;20029;-70
2023/07/04 11:28:18;;;;;;;8.25;2.80;;;;;;;19.51;49.40;101108.88;5035092;28;20048;-70
2023/07/04 11:30:49;;;;;;;7.57;2.47;;;;;;;19.60;50.22;101107.19;5033701;28;20025;-70
2023/07/04 11:33:42;;;;;;;10.20;2.53;;;;;;;19.68;50.56;101108.53;5035868;28;20043;-70
2023/07/04 11:36:22;;;;;;;10.45;2.67;;;;;;;19.70;50.58;101106.31;5031698;28;20064;-69
2023/07/04 11:38:59;;;;;;;11.55;3.33;;;;;;;19.65;49.59;101099.75;5015676;28;20029;-70
2023/07/04 11:41:31;;;;;;;7.40;2.45;;;;;;;19.77;48.84;101104.94;5039769;28;20033;-72
2023/07/04 11:44:00;;;;;;;7.63;2.58;;;;;;;19.94;49.00;101103.78;5052513;28;20029;-76
2023/07/04 11:46:33;;;;;;;6.63;2.38;;;;;;;20.11;48.82;101104.25;5071275;28;20154;-73
2023/07/04 11:49:00;;;;;;;7.85;2.30;;;;;;;20.32;48.05;101115.97;5047370;28;20107;-73
2023/07/04 11:51:28;;;;;;;7.43;2.65;;;;;;;20.31;47.60;101108.81;5065098;28;20429;-76
2023/07/04 11:53:58;;;;;;;7.75;2.50;;;;;;;20.26;48.67;101111.59;5058435;28;20073;-71
2023/07/04 11:56:26;;;;;;;7.72;2.90;;;;;;;20.28;48.45;101098.38;5073255;28;20047;-71
2023/07/04 11:59:13;;;;;;;12.75;2.85;;;;;;;20.44;49.75;101107.38;5073212;28;20020;-71
2023/07/04 12:02:11;;;;;;;8.43;2.72;;;;;;;20.51;50.57;101107.03;5061437;28;20025;-71
2023/07/04 12:04:36;;;;;;;16.55;2.80;;;;;;;20.53;50.22;101111.16;5061255;28;20067;-72
2023/07/04 12:07:07;;;;;;;8.97;2.53;;;;;;;20.65;50.38;101097.06;5054863;28;20444;-71
2023/07/04 12:10:00;;;;;;;9.85;2.92;;;;;;;20.83;50.44;101102.97;5073314;28;20312;-72
2023/07/04 12:12:29;;;;;;;11.80;3.05;;;;;;;20.82;48.95;101101.31;5037286;28;20059;-72
2023/07/04 12:15:05;;;;;;;7.63;2.65;;;;;;;20.89;47.73;101088.91;5052966;28;20031;-72
2023/07/04 12:17:30;;;;;;;9.43;3.22;;;;;;;20.73;46.83;101081.03;5034967;28;20119;-71
2023/07/04 12:20:00;;;;;;;9.85;2.90;;;;;;;20.51;46.90;101090.53;5033544;28;20476;-71
2023/07/04 12:22:32;;;;;;;10.68;2.90;;;;;;;20.38;47.39;101083.75;5031034;28;20090;-77
2023/07/04 12:25:12;;;;;;;11.85;2.83;;;;;;;20.45;48.04;101077.94;5033720;28;20017;-70
2023/07/04 12:27:41;;;;;;;10.43;3.03;;;;;;;20.52;48.79;101084.75;5034820;28;20017;-71
2023/07/04 12:30:09;;;;;;;6.78;2.92;;;;;;;20.69;48.75;101095.38;5052606;28;20463;-70
2023/07/04 12:32:36;;;;;;;8.95;3.10;;;;;;;20.83;48.19;101080.97;5052666;28;20032;-70
2023/07/04 12:35:02;;;;;;;7.35;2.88;;;;;;;20.94;48.42;101089.94;5033996;28;20158;-73
2023/07/04 12:37:39;;;;;;;9.23;2.90;;;;;;;20.84;47.81;101090.84;5051739;28;20456;-75
2023/07/04 12:40:11;;;;;;;7.75;2.72;;;;;;;20.90;47.90;101081.44;5049844;28;20020;-70
2023/07/04 12:42:37;;;;;;;7.90;3.00;;;;;;;20.96;46.31;101080.28;5072401;28;20024;-70
2023/07/04 12:45:29;;;;;;;8.85;3.13;;;;;;;21.17;48.04;101082.84;5063219;28;20074;-71
2023/07/04 12:48:01;;;;;;;13.52;4.05;;;;;;;21.22;47.41;101077.28;5048718;28;20037;-71
2023/07/04 12:50:28;;;;;;;11.68;3.28;;;;;;;21.04;46.94;101073.34;5052643;28;20039;-72
2023/07/04 12:52:54;;;;;;;9.70;3.47;;;;;;;20.98;47.08;101078.06;5052490;28;20028;-71
2023/07/04 12:55:28;;;;;;;7.78;3.17;;;;;;;20.92;48.30;101073.72;5050522;28;20041;-73
2023/07/04 12:57:54;;;;;;;9.93;3.53;;;;;;;20.77;48.40;101073.88;5066438;28;20032;-71
2023/07/04 13:00:27;;;;;;;9.32;3.25;;;;;;;20.77;49.55;101073.88;5054316;28;20020;-72
2023/07/04 13:03:10;;;;;;;12.15;3.75;;;;;;;20.62;49.19;101075.63;5071294;28;20024;-72
2023/07/04 13:05:39;;;;;;;8.70;3.47;;;;;;;20.59;48.72;101081.66;5042075;28;20029;-71
2023/07/04 13:08:13;;;;;;;10.68;3.55;;;;;;;20.50;48.33;101083.38;5072228;28;20029;-72
2023/07/04 13:10:38;;;;;;;8.88;3.40;;;;;;;20.38;48.03;101085.69;5054441;28;20050;-72
2023/07/04 13:13:13;;;;;;;8.88;3.50;;;;;;;20.27;49.01;101082.19;5054147;28;20456;-73
2023/07/04 13:15:39;;;;;;;8.68;3.58;;;;;;;20.16;48.61;101074.00;5053062;28;20039;-70
2023/07/04 13:18:06;;;;;;;10.70;3.60;;;;;;;20.13;49.46;101082.81;5067287;28;20447;-72
2023/07/04 13:20:35;;;;;;;10.23;3.88;;;;;;;20.12;50.48;101083.09;5072243;28;20093;-72
2023/07/04 13:23:17;;;;;;;10.40;3.58;;;;;;;20.14;50.06;101078.13;5072230;28;20035;-72
2023/07/04 13:25:44;;;;;;;10.65;3.92;;;;;;;20.04;50.20;101078.22;5059174;28;20029;-71
2023/07/04 13:28:19;;;;;;;10.70;4.05;;;;;;;20.05;50.98;101079.84;5072014;28;20451;-71
2023/07/04 13:30:44;;;;;;;10.40;3.72;;;;;;;20.07;51.86;101074.91;5054079;28;20032;-72
2023/07/04 13:33:28;;;;;;;10.40;3.75;;;;;;;20.03;51.25;101082.88;5054014;28;20025;-70
2023/07/04 13:36:06;;;;;;;11.30;4.05;;;;;;;19.95;51.73;101083.47;5057687;28;20120;-71
2023/07/04 13:38:32;;;;;;;12.25;3.90;;;;;;;19.90;52.64;101076.06;5040913;28;20472;-75
2023/07/04 13:40:58;;;;;;;10.35;3.75;;;;;;;19.87;52.33;101073.06;5061655;28;20062;-74
2023/07/04 13:43:24;;;;;;;14.70;4.38;;;;;;;19.84;52.68;101077.22;5056416;28;20012;-75
2023/07/04 13:45:50;;;;;;;15.20;4.63;;;;;;;19.84;52.79;101082.69;5056052;28;20043;-75
2023/07/04 13:48:16;;;;;;;11.63;4.68;;;;;;;19.78;52.84;101076.41;5039335;28;20025;-70
2023/07/04 13:50:42;;;;;;;12.82;4.32;;;;;;;19.75;52.95;101067.88;5037654;28;20452;-73
2023/07/04 13:53:08;;;;;;;9.85;4.30;;;;;;;19.68;52.97;101070.91;5055155;28;20017;-73
2023/07/04 13:55:34;;;;;;;13.77;4.22;;;;;;;19.61;55.76;101071.22;5037308;28;20488;-71
2023/07/04 13:58:00;;;;;;;15.75;4.80;;;;;;;19.51;56.95;101063.03;5037022;28;20040;-71
2023/07/04 14:00:25;;;;;;;12.95;4.35;;;;;;;19.45;55.40;101058.66;5057334;28;20070;-70
2023/07/04 14:02:50;;;;;;;14.13;4.60;;;;;;;19.43;56.66;101055.34;5061328;28;20345;-71
2023/07/04 14:05:16;;;;;;;13.65;4.38;;;;;;;19.48;56.95;101044.38;5046965;28;20033;-70
2023/07/04 14:07:42;;;;;;;13.25;4.22;;;;;;;19.54;55.63;101045.19;5037081;28;20056;-72
2023/07/04 14:10:09;;;;;;;11.38;4.22;;;;;;;19.70;56.75;101045.94;5055180;28;20036;-72
2023/07/04 14:12:35;;;;;;;12.48;3.97;;;;;;;20.05;57.15;101044.97;5037222;28;20036;-71
2023/07/04 14:15:00;;;;;;;14.18;4.30;;;;;;;20.31;55.33;101042.03;5054558;28;20047;-70
2023/07/04 14:17:25;;;;;;;13.13;4.38;;;;;;;20.46;54.37;101043.84;5050300;28;20104;-71
2023/07/04 14:19:53;;;;;;;10.40;4.43;;;;;;;20.52;53.78;101045.44;5061395;28;20028;-71
2023/07/04 14:22:18;;;;;;;9.85;4.03;;;;;;;20.73;54.74;101039.78;5034999;28;20028;-69
2023/07/04 14:24:44;;;;;;;10.07;4.05;;;;;;;20.81;52.90;101040.00;5051736;28;20021;-71
2023/07/04 14:27:09;;;;;;;10.05;3.97;;;;;;;20.77;52.03;101038.91;5043611;28;20037;-69
2023/07/04 14:29:34;;;;;;;14.27;4.68;;;;;;;20.92;53.41;101037.16;5056401;28;20036;-70
2023/07/04 14:32:00;;;;;;;11.05;4.40;;;;;;;21.19;54.99;101031.09;5054837;28;20025;-70
2023/07/04 14:34:26;;;;;;;11.48;4.30;;;;;;;21.33;52.69;101032.03;5054141;28;20021;-71
2023/07/04 14:36:52;;;;;;;13.23;4.88;;;;;;;21.49;54.46;101031.84;5071562;28;20033;-71
2023/07/04 14:39:18;;;;;;;8.55;4.22;;;;;;;21.56;50.84;101030.41;5035107;28;20028;-72
2023/07/04 14:41:43;;;;;;;11.27;4.40;;;;;;;21.67;51.65;101025.56;5054505;28;20021;-71
2023/07/04 14:44:08;;;;;;;10.82;4.30;;;;;;;21.65;50.99;101025.06;5055816;28;20396;-72
2023/07/04 14:46:34;;;;;;;13.68;4.60;;;;;;;21.66;51.71;101021.16;5054527;28;20453;-73
2023/07/04 14:48:59;;;;;;;14.88;4.47;;;;;;;21.71;51.65;101018.38;5057218;28;20021;-72
2023/07/04 14:51:25;;;;;;;11.30;4.50;;;;;;;21.64;51.41;101017.91;5057819;28;20029;-72
2023/07/04 14:53:53;;;;;;;13.73;4.53;;;;;;;21.51;51.93;101024.13;5058040;28;20440;-72
2023/07/04 14:56:18;;;;;;;13.20;4.63;;;;;;;21.37;50.87;101007.47;5059826;28;20049;-71
2023/07/04 14:58:44;;;;;;;11.00;4.53;;;;;;;21.33;50.66;101001.75;5053644;28;20532;-69
2023/07/04 15:01:19;;;;;;;10.65;4.50;;;;;;;21.35;50.24;101001.47;5032419;28;20025;-69
2023/07/04 15:03:44;;;;;;;10.68;5.43;;;;;;;21.28;50.14;101007.31;5038598;28;20033;-70
2023/07/04 15:06:10;;;;;;;13.07;5.30;;;;;;;21.17;48.61;101003.06;5041194;28;20432;-71
2023/07/04 15:08:35;;;;;;;10.27;4.80;;;;;;;21.10;49.50;100997.06;5046484;28;20359;-69
2023/07/04 15:11:01;;;;;;;10.13;5.05;;;;;;;21.12;50.13;101001.19;5042728;28;20032;-70
2023/07/04 15:13:27;;;;;;;10.40;5.35;;;;;;;21.09;50.84;100998.19;5053582;28;20029;-69
2023/07/04 15:16:01;;;;;;;14.23;5.28;;;;;;;21.05;50.70;100996.00;5050737;28;20033;-69
2023/07/04 15:18:28;;;;;;;9.95;5.00;;;;;;;21.02;48.86;100996.59;5057454;28;20029;-69
2023/07/04 15:20:53;;;;;;;12.32;4.75;;;;;;;20.98;50.24;100995.53;5065971;28;20021;-69
2023/07/04 15:23:19;;;;;;;12.10;5.13;;;;;;;20.97;49.36;100999.41;5058978;28;20074;-69
2023/07/04 15:25:52;;;;;;;11.13;5.15;;;;;;;20.94;49.88;101000.00;5050628;28;20032;-69
2023/07/04 15:28:21;;;;;;;11.05;4.60;;;;;;;20.93;50.04;100992.03;5059989;28;20491;-69
2023/07/04 15:30:50;;;;;;;11.88;5.13;;;;;;;20.85;49.05;100996.25;5062129;28;20021;-70
2023/07/04 15:33:16;;;;;;;10.60;4.90;;;;;;;20.78;48.97;100991.06;5052356;28;20087;-70
2023/07/04 15:35:41;;;;;;;13.75;5.05;;;;;;;20.78;49.97;100993.00;5068326;28;20062;-70
2023/07/04 15:38:07;;;;;;;10.73;4.50;;;;;;;20.58;52.13;100983.81;5071997;28;20043;-69
2023/07/04 15:40:32;;;;;;;10.63;4.25;;;;;;;20.47;53.72;100977.59;5066048;28;20037;-68
2023/07/04 15:42:57;;;;;;;14.10;5.10;;;;;;;20.42;54.27;100974.06;5051310;28;20024;-69
2023/07/04 15:45:23;;;;;;;12.70;4.68;;;;;;;20.39;54.61;100977.41;5052910;28;20106;-71
2023/07/04 15:47:48;;;;;;;9.30;3.95;;;;;;;20.33;56.35;100971.91;5052368;28;20111;-70
2023/07/04 15:50:15;;;;;;;11.85;4.85;;;;;;;20.24;55.02;100965.41;5051783;28;20420;-70
2023/07/04 15:52:41;;;;;;;16.23;4.88;;;;;;;20.19;56.04;100968.22;5062131;28;20107;-69
2023/07/04 15:55:10;;;;;;;9.35;4.07;;;;;;;20.09;57.09;100968.28;5050793;28;20056;-73
2023/07/04 15:57:37;;;;;;;12.57;4.88;;;;;;;20.00;58.12;100960.66;5039026;28;20353;-69
2023/07/04 16:00:04;;;;;;;13.00;5.20;;;;;;;19.97;58.27;100961.25;5053183;28;20032;-69
2023/07/04 16:02:29;;;;;;;12.70;4.60;;;;;;;19.94;57.89;100958.22;5045982;28;20563;-68
2023/07/04 16:04:55;;;;;;;12.00;4.32;;;;;;;19.86;59.47;100959.66;5053956;28;20115;-68
2023/07/04 16:07:20;;;;;;;11.88;4.32;;;;;;;19.84;61.16;100959.13;5054647;28;20104;-69
